Latest Weather Observations for Penrith

IDN60901

Issued at 6:51 pm EST Wednesday 26 June 2019 (issued every 10 minutes, with the page automatically refreshed every 10 minutes)

About weather observations | Map of Sydney area stations | Latest observations for Sydney area | Other Formats
Station Details ID: 067113 Name: PENRITH LAKES AWS Lat: -33.72 Lon: 150.68 Height: 24.7 m
Data from the previous 72 hours. | See also: Recent months at Penrith
Date/Time
EST
Temp
°C
App
Temp
°C
Dew
Point
°C
Rel
Hum
%
Delta-T
°C
Wind Press
QNH
hPa
Press
MSL
hPa
Rain since
9am
mm
Dir  Spd
km/h
Gust
km/h
Spd
kts
Gust
kts
26/06:30pm 13.0 12.2 11.1 88 1.0 SW 6 6 3 3 - - 0.2
26/06:00pm 13.5 13.0 10.9 84 1.4 S 4 6 2 3 - - 0.2
26/05:30pm 13.7 13.2 10.9 83 1.5 SW 4 6 2 3 - - 0.2
26/05:00pm 14.4 13.5 10.8 79 1.9 SSE 6 9 3 5 - - 0.2
26/04:30pm 14.9 12.7 10.7 76 2.2 SE 13 17 7 9 - - 0.2
26/04:00pm 16.2 14.0 10.9 71 2.8 SE 13 24 7 13 - - 0.2
26/03:30pm 16.6 13.6 10.5 67 3.2 SE 17 24 9 13 - - 0.2
26/03:00pm 18.0 16.7 11.1 64 3.7 SE 9 15 5 8 - - 0.2
26/02:30pm 17.4 15.5 10.5 64 3.7 S 11 17 6 9 - - 0.2
26/02:00pm 18.1 17.3 11.7 66 3.5 SSW 7 13 4 7 - - 0.2
26/01:30pm 17.3 16.3 12.2 72 2.8 WSW 9 15 5 8 - - 0.2
26/01:00pm 16.0 14.4 11.6 75 2.4 SW 11 15 6 8 - - 0.2
26/12:30pm 15.5 15.2 13.2 86 1.3 WSW 7 9 4 5 - - 0.2
26/12:00pm 14.0 12.9 13.1 94 0.5 WSW 11 15 6 8 - - 0.2
26/11:30am 13.7 12.7 12.4 92 0.7 SSW 9 17 5 9 - - 0.2
26/11:00am 14.4 14.2 11.7 84 1.5 SSW 4 7 2 4 - - 0.2
26/10:30am 13.7 12.0 11.2 85 1.3 S 11 24 6 13 - - 0.2
26/10:00am 15.2 13.9 10.0 71 2.7 S 7 11 4 6 - - 0.0
26/09:30am 15.1 14.0 10.7 75 2.3 SSW 7 13 4 7 - - 0.0
26/09:00am 14.6 12.8 11.0 79 1.9 SW 11 17 6 9 - - 0.0
26/08:30am 14.0 12.9 10.8 81 1.7 S 7 13 4 7 - - 0.0
26/08:00am 13.6 12.5 10.8 83 1.5 SSW 7 9 4 5 - - 0.0
26/07:30am 13.1 12.2 11.2 88 1.0 SW 7 9 4 5 - - 0.0
26/07:00am 12.6 11.4 11.7 94 0.5 SW 9 13 5 7 - - 0.0
26/06:30am 12.4 11.8 11.6 95 0.4 SSW 6 6 3 3 - - 0.0
26/06:00am 12.3 12.5 11.7 96 0.3 SSW 2 2 1 1 - - 0.0
26/05:30am 12.5 13.0 11.6 94 0.5 CALM 0 0 0 0 - - 0.0
26/05:00am 12.6 12.7 11.5 93 0.6 SSW 2 6 1 3 - - 0.0
26/04:30am 12.7 12.0 11.3 91 0.7 SSW 6 7 3 4 - - 0.0
26/04:00am 12.7 13.1 11.4 92 0.7 CALM 0 6 0 3 - - 0.0
26/03:30am 12.8 12.1 11.5 92 0.7 SW 6 7 3 4 - - 0.0
26/03:00am 13.2 12.7 10.9 86 1.2 SE 4 6 2 3 - - 0.0
26/02:30am 13.2 12.7 10.7 85 1.3 S 4 6 2 3 - - 0.0
26/02:00am 13.1 12.0 10.8 86 1.2 SSW 7 13 4 7 - - 0.0
26/01:30am 13.2 12.3 10.7 85 1.3 SSW 6 9 3 5 - - 0.0
26/01:00am 13.8 13.0 11.0 83 1.5 SSW 6 9 3 5 - - 0.0
26/12:30am 13.7 12.7 11.0 84 1.4 SSW 7 11 4 6 - - 0.0
26/12:00am 13.8 12.5 11.1 84 1.4 S 9 19 5 10 - - 0.0
 
Date/Time
EST
Temp
°C
App
Temp
°C
Dew
Point
°C
Rel
Hum
%
Delta-T
°C
Wind Press
QNH
hPa
Press
MSL
hPa
Rain since
9am
mm
Dir  Spd
km/h
Gust
km/h
Spd
kts
Gust
kts
25/11:30pm 13.9 12.6 11.1 83 1.5 SSW 9 11 5 6 - - 0.0
25/11:00pm 13.8 13.0 11.0 83 1.5 SSW 6 9 3 5 - - 0.0
25/10:30pm 14.1 13.1 11.1 82 1.6 S 7 13 4 7 - - 0.0
25/10:00pm 14.2 12.8 11.0 81 1.7 SSW 9 13 5 7 - - 0.0
25/09:30pm 14.2 13.2 11.0 81 1.7 SSW 7 11 4 6 - - 0.0
25/09:00pm 14.3 13.3 11.1 81 1.7 SSW 7 9 4 5 - - 0.0
25/08:30pm 14.3 13.3 11.1 81 1.7 SSW 7 11 4 6 - - 0.0
25/08:00pm 14.5 13.2 11.1 80 1.8 SSW 9 13 5 7 - - 0.0
25/07:30pm 14.4 13.5 11.2 81 1.7 SSW 7 11 4 6 - - 0.0
25/07:00pm 14.4 14.1 11.6 83 1.5 SSW 4 6 2 3 - - 0.0
25/06:30pm 14.7 14.4 11.5 81 1.7 SSW 4 6 2 3 - - 0.0
25/06:00pm 14.8 14.5 11.4 80 1.8 S 4 6 2 3 - - 0.0
25/05:30pm 15.1 14.4 11.3 78 2.0 S 6 9 3 5 - - 0.0
25/05:00pm 15.4 14.4 11.0 75 2.3 S 7 9 4 5 - - 0.0
25/04:30pm 15.7 13.5 10.9 73 2.6 SSE 13 19 7 10 - - 0.0
25/04:00pm 16.3 14.7 11.5 73 2.6 SSE 11 17 6 9 - - 0.0
25/03:30pm 16.5 14.1 11.4 72 2.8 SSE 15 20 8 11 - - 0.0
25/03:00pm 18.2 16.4 12.2 68 3.3 S 13 20 7 11 - - 0.0
25/02:30pm 17.3 16.3 12.4 73 2.7 S 9 15 5 8 - - 0.0
25/02:00pm 17.9 17.3 12.4 70 3.1 S 7 13 4 7 - - 0.0
25/01:30pm 17.9 17.4 12.6 71 3.0 S 7 11 4 6 - - 0.0
25/01:00pm 16.5 15.4 11.9 74 2.5 SSE 9 13 5 7 - - 0.0
25/12:30pm 17.9 17.4 12.6 71 3.0 SE 7 13 4 7 - - 0.0
25/12:00pm 17.1 16.0 11.8 71 2.9 SE 9 17 5 9 - - 0.0
25/11:30am 16.6 14.5 11.3 71 2.9 S 13 19 7 10 - - 0.0
25/11:00am 17.3 16.2 12.0 71 2.9 SSE 9 15 5 8 - - 0.0
25/10:30am 16.3 14.9 12.3 77 2.2 S 11 19 6 10 - - 0.0
25/10:00am 15.5 13.8 12.6 83 1.6 SSW 13 20 7 11 - - 0.0
25/09:30am 14.7 13.4 12.4 86 1.3 SSW 11 20 6 11 - - 0.0
25/09:00am 13.9 12.6 12.5 91 0.8 SSW 11 17 6 9 - - 5.4
25/08:30am 13.3 12.1 12.7 96 0.3 SSW 11 20 6 11 - - 5.4
25/08:00am 13.1 12.3 12.8 98 0.2 SW 9 13 5 7 - - 5.4
25/07:30am 12.1 11.0 11.8 98 0.2 SW 9 13 5 7 - - 5.4
25/07:00am 11.6 10.7 11.3 98 0.2 SSW 7 9 4 5 - - 5.4
25/06:30am 11.8 10.9 11.5 98 0.2 SSW 7 11 4 6 - - 5.4
25/06:00am 11.6 10.7 11.3 98 0.2 SSW 7 9 4 5 - - 5.4
25/05:30am 11.4 10.4 11.1 98 0.2 SSW 7 11 4 6 - - 5.4
25/05:00am 11.5 10.6 11.2 98 0.2 SSW 7 11 4 6 - - 5.4
25/04:30am 11.6 10.3 11.3 98 0.2 SSW 9 15 5 8 - - 5.2
25/04:00am 11.6 10.7 11.3 98 0.2 SSW 7 11 4 6 - - 4.8
25/03:30am 11.6 10.7 11.3 98 0.2 S 7 9 4 5 - - 4.2
25/03:00am 11.9 11.1 11.6 98 0.2 SSW 7 11 4 6 - - 3.4
25/02:30am 11.9 11.1 11.6 98 0.2 SSW 7 11 4 6 - - 3.4
25/02:00am 11.7 10.1 11.4 98 0.2 SSW 11 15 6 8 - - 3.2
25/01:30am 11.7 10.4 11.4 98 0.2 SSW 9 13 5 7 - - 3.2
25/01:00am 11.5 9.8 11.2 98 0.2 SW 11 17 6 9 - - 3.2
25/12:30am 11.7 9.7 11.4 98 0.2 SW 13 19 7 10 - - 3.2
25/12:00am 11.3 10.9 11.0 98 0.2 SSW 4 11 2 6 - - 2.4
 
Date/Time
EST
Temp
°C
App
Temp
°C
Dew
Point
°C
Rel
Hum
%
Delta-T
°C
Wind Press
QNH
hPa
Press
MSL
hPa
Rain since
9am
mm
Dir  Spd
km/h
Gust
km/h
Spd
kts
Gust
kts
24/11:30pm 11.2 10.4 10.9 98 0.2 S 6 9 3 5 - - 1.8
24/11:00pm 12.2 11.1 10.8 91 0.7 SSW 7 13 4 7 - - 0.6
24/10:30pm 11.5 10.3 10.4 93 0.6 SSW 7 13 4 7 - - 0.6
24/10:00pm 11.3 10.1 10.2 93 0.6 SSW 7 9 4 5 - - 0.6
24/09:30pm 11.3 10.0 9.9 91 0.7 SSW 7 9 4 5 - - 0.6
24/09:00pm 11.6 10.0 10.2 91 0.7 SSW 9 17 5 9 - - 0.6
24/08:30pm 11.6 9.6 10.2 91 0.7 SSW 11 15 6 8 - - 0.6
24/08:00pm 11.5 9.8 9.9 90 0.8 SSW 9 13 5 7 - - 0.6
24/07:30pm 11.8 9.8 10.0 89 0.9 SSW 11 17 6 9 - - 0.6
24/07:00pm 11.4 10.1 10.0 91 0.7 SSW 7 11 4 6 - - 0.6
24/06:30pm 11.6 10.4 10.3 92 0.7 SSW 7 11 4 6 - - 0.6
24/06:00pm 11.6 10.7 10.5 93 0.6 SSW 6 7 3 4 - - 0.6
24/05:30pm 12.4 11.0 11.0 91 0.7 SW 9 11 5 6 - - 0.6
24/05:00pm 12.8 11.9 11.5 92 0.7 SW 7 11 4 6 - - 0.6
24/04:30pm 12.9 12.4 12.1 95 0.4 SW 6 9 3 5 - - 0.6
24/04:00pm 13.1 12.6 12.5 96 0.3 SSW 7 11 4 6 - - 0.6
24/03:30pm 13.1 12.3 12.8 98 0.2 SW 9 13 5 7 - - 0.6
24/03:00pm 13.4 12.7 13.1 98 0.2 SSW 9 15 5 8 - - 0.6
24/02:30pm 14.9 12.1 11.5 80 1.8 S 17 28 9 15 - - 0.0
24/02:00pm 16.9 13.9 10.7 67 3.3 S 17 26 9 14 - - 0.0
24/01:30pm 16.3 11.8 10.2 67 3.2 S 24 35 13 19 - - 0.0
24/01:00pm 17.4 13.3 10.1 62 3.9 SE 22 35 12 19 - - 0.0
24/12:30pm 16.5 12.7 9.2 62 3.8 SSE 19 32 10 17 - - 0.0
24/12:00pm 17.6 14.9 10.2 62 3.9 S 15 24 8 13 - - 0.0
24/11:30am 16.3 14.0 10.4 68 3.1 SSW 13 20 7 11 - - 0.0
24/11:00am 15.3 13.4 10.5 73 2.5 SSW 11 17 6 9 - - 0.0
24/10:30am 14.8 13.0 11.0 78 2.0 SSW 11 17 6 9 - - 0.0
24/10:00am 13.7 11.8 10.5 81 1.7 SSW 11 19 6 10 - - 0.0
24/09:30am 12.9 10.8 9.9 82 1.5 SSW 11 19 6 10 - - 0.0
24/09:00am 12.4 10.3 9.6 83 1.4 SSW 11 17 6 9 - - 11.8
24/08:30am 12.0 9.4 9.4 84 1.3 SSW 13 22 7 12 - - 11.8
24/08:00am 11.3 9.5 9.4 88 1.0 S 9 13 5 7 - - 11.8
24/07:30am 11.0 9.2 9.4 90 0.8 SSW 9 19 5 10 - - 11.8
24/07:00am 10.6 8.4 9.2 91 0.7 SSW 11 15 6 8 - - 11.8
24/06:30am 10.4 8.1 9.0 91 0.7 SSW 11 17 6 9 - - 11.8
24/06:00am 10.3 8.1 9.2 93 0.5 SSW 11 17 6 9 - - 11.8
24/05:30am 10.1 7.9 9.3 95 0.4 SSW 11 19 6 10 - - 11.8
24/05:00am 10.4 8.6 9.5 94 0.5 SSW 9 15 5 8 - - 11.8
24/04:30am 10.4 7.5 9.6 95 0.4 SW 15 22 8 12 - - 11.6
24/04:00am 10.1 6.8 9.5 96 0.3 SSW 17 28 9 15 - - 11.6
24/03:30am 10.0 7.8 9.2 95 0.4 S 11 13 6 7 - - 11.4
24/03:00am 9.8 8.3 9.2 96 0.3 SSW 7 9 4 5 - - 11.4
24/02:30am 9.9 8.6 9.3 96 0.3 SSE 6 9 3 5 - - 11.4
24/02:00am 10.0 8.1 9.2 95 0.4 S 9 13 5 7 - - 11.4
24/01:30am 10.0 8.6 9.7 98 0.2 SSW 7 13 4 7 - - 11.4
24/01:00am 10.1 8.8 9.8 98 0.2 SW 7 13 4 7 - - 11.0
24/12:30am 9.7 8.8 9.4 98 0.1 S 4 6 2 3 - - 9.4
24/12:00am 9.8 8.4 9.5 98 0.1 SSW 7 11 4 6 - - 5.8
 
Date/Time
EST
Temp
°C
App
Temp
°C
Dew
Point
°C
Rel
Hum
%
Delta-T
°C
Wind Press
QNH
hPa
Press
MSL
hPa
Rain since
9am
mm
Dir  Spd
km/h
Gust
km/h
Spd
kts
Gust
kts
23/11:30pm 9.8 7.9 9.2 96 0.3 S 9 13 5 7 - - 2.8
23/11:00pm 10.2 7.1 8.8 91 0.7 SSW 15 22 8 12 - - 0.8
23/10:30pm 10.2 7.7 8.3 88 0.9 SSW 11 17 6 9 - - 0.6
23/10:00pm 10.4 7.4 7.6 83 1.3 SSW 13 20 7 11 - - 0.4
23/09:30pm 11.8 8.1 6.5 70 2.5 SSW 15 24 8 13 - - 0.4
23/09:00pm 11.5 8.6 6.4 71 2.4 SSW 11 15 6 8 - - 0.4
23/08:30pm 11.7 8.8 6.4 70 2.5 SSW 11 22 6 12 - - 0.4
23/08:00pm 11.5 8.2 6.6 72 2.3 SSW 13 20 7 11 - - 0.4
23/07:30pm 11.5 7.9 6.8 73 2.2 SSW 15 22 8 12 - - 0.4
23/07:00pm 11.7 8.1 6.6 71 2.4 SSW 15 26 8 14 - - 0.4

Latest Capital City Observations: Canberra | Sydney | Melbourne | Brisbane | Adelaide | Perth | Hobart | Darwin

Other formats

Comma delimited format used in spreadsheet applications
http://www.bom.gov.au/fwo/IDN60901/IDN60901.94763.axf

JavaScript Object Notation format (JSON) in row-major order
http://www.bom.gov.au/fwo/IDN60901/IDN60901.94763.json

Data quality

Most of these data are generated automatically and are frequently updated. Quality checks on data are not normally performed. It is possible for incorrect values to appear. Refer to information at About Latest Weather Observations and please check the disclaimer before using these data.